createdAt,value
2022-09-22T00:02:03.448Z,11.03
2022-09-22T00:05:00.754Z,10.97
2022-09-22T00:07:58.686Z,10.86
2022-09-22T00:11:16.938Z,10.82
2022-09-22T00:14:15.310Z,10.51
2022-09-22T00:17:12.512Z,10.51
2022-09-22T00:20:09.651Z,10.53
2022-09-22T00:23:07.416Z,10.52
2022-09-22T00:26:15.806Z,10.56
2022-09-22T00:29:13.458Z,10.46
2022-09-22T00:32:10.284Z,10.56
2022-09-22T00:35:08.315Z,10.48
2022-09-22T00:38:06.155Z,10.46
2022-09-22T00:41:03.528Z,10.47
2022-09-22T00:44:21.168Z,10.45
2022-09-22T00:47:31.807Z,10.44
2022-09-22T00:50:29.661Z,10.32
2022-09-22T00:53:26.601Z,10.18
2022-09-22T00:56:35.249Z,10.03
2022-09-22T00:59:32.614Z,10.10
2022-09-22T01:02:29.613Z,10.12
2022-09-22T01:05:26.831Z,10.04
2022-09-22T01:08:24.481Z,9.93
2022-09-22T01:11:21.114Z,9.86
2022-09-22T01:14:52.741Z,10.03
2022-09-22T01:17:59.575Z,10.11
2022-09-22T01:21:02.634Z,10.07
2022-09-22T01:24:14.892Z,9.94
2022-09-22T01:27:36.765Z,9.83
2022-09-22T01:30:45.786Z,9.69
2022-09-22T01:34:11.782Z,9.72
2022-09-22T01:37:20.928Z,9.86
2022-09-22T01:40:39.449Z,9.80
2022-09-22T01:43:49.861Z,9.55
2022-09-22T01:46:52.540Z,9.44
2022-09-22T01:49:54.297Z,9.46
2022-09-22T01:52:52.769Z,9.42
2022-09-22T01:55:52.714Z,9.38
2022-09-22T01:58:52.727Z,9.21
2022-09-22T02:01:51.560Z,9.27
2022-09-22T02:04:51.425Z,9.43
2022-09-22T02:07:50.074Z,9.41
2022-09-22T02:10:48.089Z,9.34
2022-09-22T02:13:46.298Z,9.33
2022-09-22T02:16:43.404Z,9.31
2022-09-22T02:19:41.139Z,9.31
2022-09-22T02:22:38.440Z,9.26
2022-09-22T02:25:36.417Z,9.07
2022-09-22T02:28:34.555Z,9.14
2022-09-22T02:31:32.916Z,9.12
2022-09-22T02:34:31.761Z,9.11
2022-09-22T02:37:30.736Z,9.04
2022-09-22T02:40:58.280Z,8.84
2022-09-22T02:44:08.737Z,8.77
2022-09-22T02:47:27.326Z,8.87
2022-09-22T02:50:25.892Z,8.95
2022-09-22T02:53:23.452Z,8.98
2022-09-22T02:56:20.510Z,9.00
2022-09-22T02:59:17.491Z,8.88
2022-09-22T03:02:14.620Z,8.89
2022-09-22T03:05:11.370Z,8.86
2022-09-22T03:08:08.410Z,8.64
2022-09-22T03:11:05.538Z,8.75
2022-09-22T03:14:02.764Z,8.84
2022-09-22T03:16:59.723Z,8.88
2022-09-22T03:19:56.790Z,8.82
2022-09-22T03:22:53.381Z,8.86
2022-09-22T03:25:50.719Z,8.81
2022-09-22T03:28:47.272Z,8.83
2022-09-22T03:31:44.543Z,8.83
2022-09-22T03:34:41.569Z,8.81
2022-09-22T03:37:38.743Z,8.77
2022-09-22T03:40:35.743Z,8.82
2022-09-22T03:43:32.865Z,8.81
2022-09-22T03:46:31.158Z,8.90
2022-09-22T03:49:28.730Z,8.91
2022-09-22T03:52:26.038Z,8.75
2022-09-22T03:55:24.665Z,8.65
2022-09-22T03:58:21.716Z,8.54
2022-09-22T04:01:18.774Z,8.44
2022-09-22T04:04:15.369Z,8.38
2022-09-22T04:07:12.359Z,8.44
2022-09-22T04:10:09.525Z,8.36
2022-09-22T04:13:06.616Z,8.43
2022-09-22T04:16:04.277Z,8.48
2022-09-22T04:19:05.042Z,8.48
2022-09-22T04:22:03.472Z,8.59
2022-09-22T04:25:00.627Z,8.52
2022-09-22T04:27:57.295Z,8.43
2022-09-22T04:30:56.323Z,8.38
2022-09-22T04:33:53.840Z,8.22
2022-09-22T04:36:50.618Z,8.08
2022-09-22T04:39:47.908Z,7.95
2022-09-22T04:42:46.850Z,7.86
2022-09-22T04:45:46.033Z,7.93
2022-09-22T04:48:43.352Z,8.00
2022-09-22T04:51:40.837Z,8.09
2022-09-22T04:54:37.857Z,8.17
2022-09-22T04:57:34.832Z,8.05
2022-09-22T05:00:31.656Z,7.96
2022-09-22T05:03:29.020Z,7.91
2022-09-22T05:06:26.697Z,7.92
2022-09-22T05:09:23.642Z,7.74
2022-09-22T05:12:21.306Z,7.59
2022-09-22T05:15:19.053Z,7.52
2022-09-22T05:18:16.509Z,7.64
2022-09-22T05:21:13.734Z,7.95
2022-09-22T05:24:10.625Z,8.18
2022-09-22T05:27:07.741Z,8.22
2022-09-22T05:30:05.896Z,8.22
2022-09-22T05:33:03.319Z,8.24
2022-09-22T05:36:01.072Z,8.25
2022-09-22T05:38:58.750Z,8.21
2022-09-22T05:41:55.563Z,8.33
2022-09-22T05:44:52.657Z,8.40
2022-09-22T05:47:49.795Z,8.25
2022-09-22T05:50:46.444Z,8.37
2022-09-22T05:53:43.463Z,8.53
2022-09-22T05:56:40.867Z,8.62
2022-09-22T05:59:37.778Z,8.74
2022-09-22T06:02:34.702Z,8.71
2022-09-22T06:05:31.835Z,8.77
2022-09-22T06:08:28.700Z,8.88
2022-09-22T06:11:25.782Z,8.96
2022-09-22T06:14:22.803Z,9.10
2022-09-22T06:17:19.400Z,9.17
2022-09-22T06:20:17.262Z,9.35
2022-09-22T06:23:15.483Z,9.54
2022-09-22T06:26:12.521Z,9.71
2022-09-22T06:29:10.740Z,9.96
2022-09-22T06:32:08.414Z,10.05
2022-09-22T06:35:08.855Z,10.15
2022-09-22T06:38:06.475Z,10.13
2022-09-22T06:41:06.761Z,10.21
2022-09-22T06:44:04.089Z,10.31
2022-09-22T06:47:10.178Z,10.26
2022-09-22T06:50:09.770Z,10.16
2022-09-22T06:53:07.586Z,10.04
2022-09-22T06:56:06.107Z,10.17
2022-09-22T06:59:10.120Z,10.40
2022-09-22T07:02:07.749Z,10.52
2022-09-22T07:05:05.665Z,10.50
2022-09-22T07:08:04.807Z,10.64
2022-09-22T07:11:03.873Z,10.87
2022-09-22T07:14:03.119Z,11.07
2022-09-22T07:17:00.882Z,11.22
2022-09-22T07:19:57.689Z,11.43
2022-09-22T07:23:00.206Z,11.53
2022-09-22T07:26:01.023Z,11.51
2022-09-22T07:29:00.263Z,11.68
2022-09-22T07:31:59.496Z,11.91
2022-09-22T07:34:57.930Z,12.18
2022-09-22T07:38:03.709Z,12.48
2022-09-22T07:41:01.494Z,12.53
2022-09-22T07:44:19.828Z,12.52
2022-09-22T07:47:36.678Z,12.75
2022-09-22T07:50:34.026Z,13.02
2022-09-22T07:53:31.990Z,13.13
2022-09-22T07:56:30.283Z,13.32
2022-09-22T07:59:27.856Z,13.47
2022-09-22T08:02:26.256Z,13.44
2022-09-22T08:05:24.727Z,13.59
2022-09-22T08:08:21.637Z,13.63
2022-09-22T08:11:25.963Z,13.62
2022-09-22T08:14:23.244Z,13.81
2022-09-22T08:17:20.893Z,14.12
2022-09-22T08:20:18.728Z,14.27
2022-09-22T08:23:15.543Z,14.43
2022-09-22T08:26:12.973Z,14.63
2022-09-22T08:29:09.729Z,14.89
2022-09-22T08:32:06.743Z,14.92
2022-09-22T08:35:05.183Z,15.03
2022-09-22T08:38:03.017Z,15.25
2022-09-22T08:41:09.038Z,15.40
2022-09-22T08:44:10.799Z,15.65
2022-09-22T08:47:12.045Z,15.70
2022-09-22T08:51:14.514Z,15.91
2022-09-22T08:54:11.661Z,15.75
2022-09-22T08:57:34.254Z,15.91
2022-09-22T09:00:38.039Z,15.92
2022-09-22T09:03:54.956Z,16.05
2022-09-22T09:07:04.109Z,16.25
2022-09-22T09:10:21.344Z,16.66
2022-09-22T09:13:30.707Z,16.69
2022-09-22T09:16:38.118Z,16.66
2022-09-22T09:19:45.043Z,16.55
2022-09-22T09:22:45.011Z,16.69
2022-09-22T09:25:52.429Z,17.02
2022-09-22T09:28:58.254Z,17.07
2022-09-22T09:31:58.646Z,17.15
2022-09-22T09:34:56.035Z,17.16
2022-09-22T09:37:59.098Z,17.09
2022-09-22T09:41:08.426Z,17.12
2022-09-22T09:44:05.959Z,17.18
2022-09-22T09:47:14.432Z,17.33
2022-09-22T09:50:12.176Z,17.49
2022-09-22T09:53:18.715Z,17.87
2022-09-22T09:56:28.593Z,17.99
2022-09-22T09:59:45.361Z,17.92
2022-09-22T10:02:50.396Z,18.08
2022-09-22T10:06:03.031Z,18.21
2022-09-22T10:09:00.180Z,18.06
2022-09-22T10:12:01.117Z,18.12
2022-09-22T10:15:00.386Z,18.26
2022-09-22T10:17:57.689Z,18.26
2022-09-22T10:21:09.695Z,18.30
2022-09-22T10:24:31.725Z,18.62
2022-09-22T10:27:30.265Z,18.71
2022-09-22T10:30:29.261Z,18.79
2022-09-22T10:33:27.022Z,18.73
2022-09-22T10:36:27.296Z,18.72
2022-09-22T10:39:32.816Z,19.25
2022-09-22T10:42:34.256Z,19.39
2022-09-22T10:45:42.510Z,19.19
2022-09-22T10:49:11.315Z,19.44
2022-09-22T10:52:26.811Z,19.38
2022-09-22T10:55:53.723Z,19.33
2022-09-22T10:59:16.770Z,19.67
2022-09-22T11:02:48.059Z,19.54
2022-09-22T11:06:26.008Z,19.50
2022-09-22T11:09:59.989Z,19.29
2022-09-22T11:13:07.481Z,19.48
2022-09-22T11:16:13.413Z,19.66
2022-09-22T11:19:23.594Z,19.29
2022-09-22T11:22:44.035Z,19.08
2022-09-22T11:25:50.722Z,19.36
2022-09-22T11:29:20.999Z,19.50
2022-09-22T11:32:43.711Z,19.62
2022-09-22T11:35:50.935Z,19.30
2022-09-22T11:38:51.030Z,19.31
2022-09-22T11:42:08.488Z,19.70
2022-09-22T11:45:43.814Z,19.62
2022-09-22T11:48:58.329Z,19.92
2022-09-22T11:52:20.784Z,20.04
2022-09-22T11:55:39.667Z,19.89
2022-09-22T11:58:41.007Z,19.45
2022-09-22T12:01:38.299Z,19.57
2022-09-22T12:04:55.846Z,19.41
2022-09-22T12:08:03.837Z,19.68
2022-09-22T12:11:00.880Z,19.74
2022-09-22T12:13:58.148Z,20.00
2022-09-22T12:17:19.997Z,20.05
2022-09-22T12:20:32.445Z,20.20
2022-09-22T12:23:36.250Z,21.06
2022-09-22T12:26:35.690Z,21.13
2022-09-22T12:29:33.158Z,20.18
2022-09-22T12:32:36.526Z,20.16
2022-09-22T12:35:34.079Z,20.18
2022-09-22T12:38:31.662Z,20.20
2022-09-22T12:41:30.292Z,20.09
2022-09-22T12:44:30.553Z,20.32
2022-09-22T12:47:33.905Z,20.03
2022-09-22T12:50:44.432Z,19.98
2022-09-22T12:53:44.022Z,20.19
2022-09-22T12:56:53.282Z,20.12
2022-09-22T12:59:57.557Z,20.14
2022-09-22T13:02:56.629Z,20.07
2022-09-22T13:05:55.816Z,19.78
2022-09-22T13:08:53.105Z,19.79
2022-09-22T13:12:12.248Z,19.98
2022-09-22T13:15:15.507Z,20.18
2022-09-22T13:18:28.690Z,20.27
2022-09-22T13:21:26.951Z,20.17
2022-09-22T13:24:27.527Z,20.06
2022-09-22T13:27:25.877Z,20.23
2022-09-22T13:30:23.166Z,20.19
2022-09-22T13:33:25.541Z,20.54
2022-09-22T13:36:25.356Z,20.38
2022-09-22T13:39:24.272Z,20.33
2022-09-22T13:42:34.152Z,19.92
2022-09-22T13:45:31.324Z,19.80
2022-09-22T13:48:32.003Z,19.61
2022-09-22T13:51:29.142Z,20.07
2022-09-22T13:54:27.423Z,20.21
2022-09-22T13:57:45.336Z,20.32
2022-09-22T14:01:11.597Z,20.28
2022-09-22T14:04:19.729Z,19.70
2022-09-22T14:07:17.189Z,19.94
2022-09-22T14:10:17.949Z,19.96
2022-09-22T14:13:38.685Z,20.16
2022-09-22T14:16:42.500Z,20.18
2022-09-22T14:19:46.056Z,19.77
2022-09-22T14:22:42.777Z,19.78
2022-09-22T14:25:40.074Z,19.78
2022-09-22T14:28:36.935Z,19.79
2022-09-22T14:31:33.764Z,19.92
2022-09-22T14:34:31.845Z,19.68
2022-09-22T14:37:39.307Z,19.86
2022-09-22T14:40:38.495Z,19.99
2022-09-22T14:43:42.181Z,20.09
2022-09-22T14:46:42.193Z,20.04
2022-09-22T14:49:43.245Z,20.04
2022-09-22T14:52:43.070Z,20.09
2022-09-22T14:55:42.539Z,20.33
2022-09-22T14:58:41.313Z,20.35
2022-09-22T15:01:57.111Z,20.35
2022-09-22T15:04:53.865Z,20.05
2022-09-22T15:07:50.638Z,19.99
2022-09-22T15:10:53.211Z,20.13
2022-09-22T15:13:52.792Z,20.23
2022-09-22T15:16:50.091Z,20.30
2022-09-22T15:19:57.166Z,20.35
2022-09-22T15:22:54.173Z,20.17
2022-09-22T15:25:52.235Z,20.10
2022-09-22T15:28:50.665Z,20.03
2022-09-22T15:31:47.786Z,19.82
2022-09-22T15:34:45.219Z,19.84
2022-09-22T15:37:47.078Z,19.96
2022-09-22T15:40:44.629Z,19.98
2022-09-22T15:43:42.013Z,20.03
2022-09-22T15:46:39.380Z,20.10
2022-09-22T15:49:36.987Z,20.09
2022-09-22T15:52:33.889Z,19.99
2022-09-22T15:55:30.971Z,19.93
2022-09-22T15:58:30.114Z,19.79
2022-09-22T16:01:28.105Z,19.63
2022-09-22T16:04:32.461Z,19.50
2022-09-22T16:07:30.052Z,19.48
2022-09-22T16:10:27.254Z,19.38
2022-09-22T16:13:24.687Z,19.42
2022-09-22T16:16:23.720Z,19.45
2022-09-22T16:19:20.722Z,19.31
2022-09-22T16:22:18.083Z,19.19
2022-09-22T16:25:15.484Z,19.20
2022-09-22T16:28:12.119Z,19.30
2022-09-22T16:31:09.187Z,19.17
2022-09-22T16:34:06.929Z,19.16
2022-09-22T16:37:04.480Z,19.19
2022-09-22T16:40:01.397Z,19.17
2022-09-22T16:42:58.529Z,19.23
2022-09-22T16:46:14.686Z,19.16
2022-09-22T16:49:13.910Z,18.97
2022-09-22T16:52:12.675Z,18.91
2022-09-22T16:55:10.531Z,18.92
2022-09-22T16:58:08.747Z,19.06
2022-09-22T17:01:06.549Z,19.14
2022-09-22T17:04:08.265Z,19.05
2022-09-22T17:07:05.704Z,18.66
2022-09-22T17:10:03.584Z,18.35
2022-09-22T17:13:01.851Z,18.43
2022-09-22T17:16:18.521Z,18.30
2022-09-22T17:19:18.486Z,18.04
2022-09-22T17:22:15.649Z,17.83
2022-09-22T17:25:14.030Z,17.75
2022-09-22T17:28:11.219Z,17.59
2022-09-22T17:31:08.490Z,17.51
2022-09-22T17:34:06.396Z,17.25
2022-09-22T17:37:03.335Z,17.12
2022-09-22T17:40:00.206Z,17.00
2022-09-22T17:42:57.290Z,16.90
2022-09-22T17:45:54.026Z,16.68
2022-09-22T17:49:09.564Z,16.75
2022-09-22T17:52:26.659Z,16.71
2022-09-22T17:55:25.592Z,16.54
2022-09-22T17:58:23.913Z,16.43
2022-09-22T18:01:21.548Z,16.38
2022-09-22T18:04:17.902Z,16.39
2022-09-22T18:07:19.705Z,16.32
2022-09-22T18:10:17.430Z,16.32
2022-09-22T18:13:14.255Z,16.24
2022-09-22T18:16:21.858Z,16.26
2022-09-22T18:19:19.397Z,16.20
2022-09-22T18:22:21.136Z,16.20
2022-09-22T18:25:19.670Z,16.29
2022-09-22T18:28:23.160Z,16.09
2022-09-22T18:31:20.350Z,15.95
2022-09-22T18:34:20.165Z,15.78
2022-09-22T18:37:17.522Z,15.75
2022-09-22T18:40:16.244Z,15.73
2022-09-22T18:43:13.637Z,15.82
2022-09-22T18:46:17.218Z,15.65
2022-09-22T18:49:14.890Z,15.53
2022-09-22T18:52:12.510Z,15.47
2022-09-22T18:55:09.853Z,15.52
2022-09-22T18:58:07.563Z,15.36
2022-09-22T19:01:06.244Z,15.22
2022-09-22T19:04:04.415Z,15.18
2022-09-22T19:07:20.025Z,15.09
2022-09-22T19:10:22.359Z,15.20
2022-09-22T19:13:19.185Z,15.04
2022-09-22T19:16:16.425Z,15.01
2022-09-22T19:19:13.358Z,14.97
2022-09-22T19:22:11.163Z,14.95
2022-09-22T19:25:08.753Z,15.03
2022-09-22T19:28:06.711Z,15.09
2022-09-22T19:31:04.310Z,15.06
2022-09-22T19:34:01.648Z,14.96
2022-09-22T19:36:59.317Z,14.79
2022-09-22T19:39:56.468Z,14.57
2022-09-22T19:42:53.811Z,14.46
2022-09-22T19:45:52.330Z,14.17
2022-09-22T19:48:49.524Z,14.30
2022-09-22T19:51:46.705Z,14.48
2022-09-22T19:54:44.426Z,14.63
2022-09-22T19:57:41.830Z,14.79
2022-09-22T20:00:39.181Z,14.87
2022-09-22T20:03:36.344Z,14.68
2022-09-22T20:06:34.724Z,14.49
2022-09-22T20:09:32.159Z,14.30
2022-09-22T20:12:28.943Z,14.24
2022-09-22T20:15:26.883Z,14.13
2022-09-22T20:18:24.582Z,13.98
2022-09-22T20:21:21.202Z,14.01
2022-09-22T20:24:19.813Z,14.11
2022-09-22T20:27:17.215Z,14.10
2022-09-22T20:30:16.070Z,14.05
2022-09-22T20:33:20.739Z,14.01
2022-09-22T20:36:19.990Z,14.00
2022-09-22T20:39:17.178Z,13.98
2022-09-22T20:42:15.452Z,13.98
2022-09-22T20:45:13.129Z,13.86
2022-09-22T20:48:18.439Z,13.71
2022-09-22T20:51:15.241Z,13.62
2022-09-22T20:54:12.947Z,13.45
2022-09-22T20:57:11.273Z,13.48
2022-09-22T21:00:09.129Z,13.44
2022-09-22T21:03:06.500Z,13.43
2022-09-22T21:06:04.376Z,13.43
2022-09-22T21:09:19.823Z,13.49
2022-09-22T21:12:17.994Z,13.51
2022-09-22T21:15:15.349Z,13.44
2022-09-22T21:18:12.998Z,13.49
2022-09-22T21:21:10.537Z,13.46
2022-09-22T21:24:08.204Z,13.42
2022-09-22T21:27:05.887Z,13.31
2022-09-22T21:30:03.475Z,13.23
2022-09-22T21:33:00.236Z,13.21
2022-09-22T21:36:05.397Z,13.22
2022-09-22T21:39:02.651Z,13.17
2022-09-22T21:41:59.680Z,13.16
2022-09-22T21:44:57.650Z,13.17
2022-09-22T21:47:54.254Z,13.29
2022-09-22T21:51:02.278Z,13.25
2022-09-22T21:53:59.137Z,13.04
2022-09-22T21:56:57.346Z,12.91
2022-09-22T21:59:56.743Z,12.94
2022-09-22T22:03:17.485Z,12.99
2022-09-22T22:06:24.105Z,13.03
2022-09-22T22:09:22.460Z,13.00
2022-09-22T22:12:23.503Z,12.85
2022-09-22T22:15:20.404Z,12.84
2022-09-22T22:18:17.217Z,12.82
2022-09-22T22:21:19.145Z,12.72
2022-09-22T22:24:17.491Z,12.80
2022-09-22T22:27:16.795Z,12.80
2022-09-22T22:30:14.645Z,12.76
2022-09-22T22:33:12.484Z,12.77
2022-09-22T22:36:10.948Z,12.78
2022-09-22T22:39:10.072Z,12.44
2022-09-22T22:42:07.520Z,12.23
2022-09-22T22:45:05.349Z,12.31
2022-09-22T22:48:02.690Z,12.40
2022-09-22T22:50:59.503Z,12.27
2022-09-22T22:53:56.401Z,12.31
2022-09-22T22:56:53.662Z,12.34
2022-09-22T22:59:50.465Z,12.28
2022-09-22T23:02:47.567Z,12.24
2022-09-22T23:05:44.701Z,12.22
2022-09-22T23:08:41.442Z,12.19
2022-09-22T23:11:39.914Z,12.21
2022-09-22T23:14:38.039Z,12.16
2022-09-22T23:17:36.481Z,12.06
2022-09-22T23:20:33.450Z,12.03
2022-09-22T23:23:30.407Z,11.92
2022-09-22T23:26:28.949Z,11.84
2022-09-22T23:29:26.369Z,11.84
2022-09-22T23:32:24.468Z,11.68
2022-09-22T23:35:21.345Z,11.51
2022-09-22T23:38:18.639Z,11.48
2022-09-22T23:41:15.409Z,11.51
2022-09-22T23:44:12.461Z,11.55
2022-09-22T23:47:12.221Z,11.52
2022-09-22T23:50:12.439Z,11.55
2022-09-22T23:53:09.856Z,11.51
2022-09-22T23:56:08.287Z,11.45
2022-09-22T23:59:05.573Z,11.44
